Portada
METAR-TAF:

METAR-TAF

Aeroports :

Tarba-Lorda, França

latitud: 43-11N, longitud: 000-00W, altitud: 379 m

Observació

L'informe es va fer fa 20 minuts, a les 15:30 UTC
Vent 5 kt del Nord-Est, variant entre Nord i Est/Sud-Est
Temperatura 27°C
Humitat 42%
Pressió 1013 hPa
Visibilitat 10 km o més
Cel cobert a una alçada de 6600 ft

METAR: LFBT 301530Z AUTO 05005KT 360V120 9999 OVC066 27/13 Q1013

Hora: 17:50 (15:50 UTC)


TAF: manca

Observacions i pronòstics meteorològics de més de 4000 aeroports (METAR i TAF).

Les estacions disponibles són els punts grocs i vermells al mapa.

Posi el ratolí al punt desitjat per veure el nom de l'estació.

Feu clic per veure les observacions i els pronòstics meteorològics.

Per canviar el mapa: feu clic els botons verds amb una creu de color negre per apropar; al botó verd amb un guió per allunyar la imatge; o en les fletxes verdes per a mapes adjacents.


METAR-TAF: